Time;durP1;ratioP1;P1;durP2;ratioP2;P2;SDS_P1;SDS_P2;PMS_P1;PMS_P2;Temp;Humidity;BMP_temperature;BMP_pressure;BME280_temperature;BME280_humidity;BME280_pressure;Samples;Min_cycle;Max_cycle;Signal;HPM_P1;HPM_P2
2021/11/03 00:01:06;;;;;;;192.38;26.50;;;;;;;7.45;nan;100302.25;5090493;28;20116;-50
2021/11/03 00:03:34;;;;;;;99.70;16.35;;;;;;;7.28;nan;100307.53;5094223;28;20093;-50
2021/11/03 00:06:00;;;;;;;50.40;11.75;;;;;;;7.21;nan;100300.75;5072259;28;20020;-55
2021/11/03 00:08:27;;;;;;;52.83;12.27;;;;;;;7.22;nan;100302.34;5085590;28;20557;-52
2021/11/03 00:10:55;;;;;;;141.73;18.92;;;;;;;7.22;nan;100300.50;5089773;28;20473;-55
2021/11/03 00:13:23;;;;;;;93.22;15.30;;;;;;;7.20;nan;100301.78;5096446;28;20085;-54
2021/11/03 00:15:50;;;;;;;155.65;19.80;;;;;;;7.22;nan;100302.34;5091559;28;20372;-53
2021/11/03 00:18:17;;;;;;;131.30;17.70;;;;;;;7.18;nan;100299.38;5089628;28;20024;-55
2021/11/03 00:20:43;;;;;;;80.93;14.68;;;;;;;7.07;nan;100315.38;5090454;28;20392;-52
2021/11/03 00:23:09;;;;;;;67.75;13.85;;;;;;;7.00;nan;100320.81;5094873;28;20030;-53
2021/11/03 00:25:40;;;;;;;69.57;13.73;;;;;;;7.03;nan;100325.69;5088690;28;20118;-53
2021/11/03 00:28:07;;;;;;;73.25;15.55;;;;;;;7.02;nan;100328.59;5089825;28;20050;-49
2021/11/03 00:30:34;;;;;;;30.83;10.13;;;;;;;7.06;nan;100329.72;5089748;28;20061;-50
2021/11/03 00:32:59;;;;;;;41.05;11.43;;;;;;;6.97;nan;100334.59;5093692;28;20038;-55
2021/11/03 00:35:25;;;;;;;41.85;12.65;;;;;;;6.91;nan;100330.22;5090473;28;20020;-55
2021/11/03 00:37:50;;;;;;;50.97;13.05;;;;;;;6.91;nan;100331.03;5089544;28;20107;-52
2021/11/03 00:40:16;;;;;;;44.10;12.48;;;;;;;7.00;nan;100330.66;5088968;28;20084;-53
2021/11/03 00:42:41;;;;;;;46.97;13.15;;;;;;;7.06;nan;100335.06;5097396;28;20112;-49
2021/11/03 00:45:08;;;;;;;32.38;10.77;;;;;;;7.12;nan;100334.09;5098628;28;20020;-50
2021/11/03 00:47:35;;;;;;;49.10;11.75;;;;;;;7.09;nan;100338.06;5092938;28;20044;-53
2021/11/03 00:50:01;;;;;;;21.40;8.65;;;;;;;7.10;nan;100336.19;5113565;22;20062;-82
2021/11/03 00:52:26;;;;;;;23.80;10.38;;;;;;;7.18;nan;100338.50;5120058;27;20031;-82
2021/11/03 00:54:52;;;;;;;25.50;10.05;;;;;;;7.23;nan;100330.63;5115238;27;20069;-82
2021/11/03 00:57:17;;;;;;;27.38;9.77;;;;;;;7.25;nan;100323.19;5117854;27;20043;-83
2021/11/03 00:59:43;;;;;;;18.65;8.65;;;;;;;7.25;nan;100323.19;5138411;27;20027;-82
2021/11/03 01:02:08;;;;;;;18.15;8.50;;;;;;;7.26;nan;100330.16;5119028;27;20007;-82
2021/11/03 01:04:34;;;;;;;17.85;9.65;;;;;;;7.19;nan;100337.47;5111234;27;20025;-82
2021/11/03 01:07:00;;;;;;;22.90;10.20;;;;;;;7.17;nan;100335.00;5115987;28;20108;-82
2021/11/03 01:09:26;;;;;;;28.13;10.25;;;;;;;7.20;nan;100336.44;5117988;27;20099;-82
2021/11/03 01:11:52;;;;;;;20.23;9.05;;;;;;;7.21;nan;100333.53;5127012;27;20106;-82
2021/11/03 01:14:18;;;;;;;27.85;10.23;;;;;;;7.16;nan;100330.72;5122806;27;20027;-82
2021/11/03 01:16:43;;;;;;;33.85;10.23;;;;;;;7.20;nan;100336.44;5141065;27;20015;-82
2021/11/03 01:19:09;;;;;;;33.13;10.88;;;;;;;7.13;nan;100335.72;5147207;27;19999;-82
2021/11/03 01:21:36;;;;;;;48.17;11.20;;;;;;;7.13;nan;100343.72;5130367;27;20058;-82
2021/11/03 01:24:03;;;;;;;45.42;11.38;;;;;;;7.13;nan;100341.06;5106464;28;20038;-82
2021/11/03 01:26:28;;;;;;;74.10;14.32;;;;;;;7.13;nan;100330.41;5113847;27;20053;-82
2021/11/03 01:28:54;;;;;;;42.33;11.60;;;;;;;7.14;nan;100348.00;5112160;27;20564;-82
2021/11/03 01:31:19;;;;;;;26.17;10.40;;;;;;;7.15;nan;100331.78;5132973;27;20056;-83
2021/11/03 01:33:45;;;;;;;28.27;9.80;;;;;;;7.15;nan;100336.31;5110511;28;20057;-82
2021/11/03 01:36:12;;;;;;;72.25;12.95;;;;;;;7.17;nan;100344.88;5111475;27;20082;-82
2021/11/03 01:38:38;;;;;;;101.82;14.40;;;;;;;7.10;nan;100336.19;5112270;27;20034;-82
2021/11/03 01:41:04;;;;;;;195.25;18.85;;;;;;;6.96;nan;100335.63;5113401;27;20357;-82
2021/11/03 01:43:39;;;;;;;173.93;20.67;;;;;;;6.81;nan;100336.13;5113324;27;20038;-82
2021/11/03 01:46:19;;;;;;;;;;;;;;;6.70;nan;100334.28;5107351;27;20086;-82
2021/11/03 01:48:45;;;;;;;92.00;12.95;;;;;;;6.83;nan;100338.56;5112116;27;20075;-82
2021/11/03 01:51:18;;;;;;;88.35;13.15;;;;;;;6.88;nan;100331.50;5113672;28;20091;-82
2021/11/03 01:53:44;;;;;;;53.67;11.57;;;;;;;6.95;nan;100326.84;5102526;28;20027;-82
2021/11/03 01:56:10;;;;;;;38.30;10.07;;;;;;;7.00;nan;100325.31;5110761;27;20023;-82
2021/11/03 01:58:50;;;;;;;54.42;10.45;;;;;;;6.93;nan;100325.47;5106631;28;20031;-82
2021/11/03 02:01:16;;;;;;;60.42;10.40;;;;;;;7.01;nan;100329.63;5108015;28;20027;-82
2021/11/03 02:03:42;;;;;;;51.33;9.75;;;;;;;6.98;nan;100323.69;5113296;28;20023;-82
2021/11/03 02:06:19;;;;;;;100.43;12.98;;;;;;;6.93;nan;100325.47;5108564;28;20108;-83
2021/11/03 02:08:46;;;;;;;69.35;11.57;;;;;;;6.91;nan;100319.56;5112788;28;20039;-82
2021/11/03 02:11:13;;;;;;;132.45;15.82;;;;;;;6.87;nan;100319.22;5112933;28;20373;-82
2021/11/03 02:13:40;;;;;;;175.35;16.65;;;;;;;6.59;nan;100314.59;5114619;28;20120;-82
2021/11/03 02:16:09;;;;;;;164.02;17.92;;;;;;;6.43;nan;100327.78;5112190;28;20468;-82
2021/11/03 02:18:35;;;;;;;180.15;19.88;;;;;;;6.29;nan;100330.69;5106479;28;20047;-82
2021/11/03 02:21:02;;;;;;;70.28;11.60;;;;;;;6.40;nan;100328.25;5114730;28;20019;-82
2021/11/03 02:23:44;;;;;;;151.95;17.65;;;;;;;6.42;nan;100324.31;5114080;28;20019;-82
2021/11/03 02:26:20;;;;;;;71.05;12.50;;;;;;;6.47;nan;100324.47;5108081;28;20022;-82
2021/11/03 02:28:47;;;;;;;122.43;15.80;;;;;;;6.48;nan;100317.28;5114667;28;20091;-82
2021/11/03 02:31:34;;;;;;;106.85;15.00;;;;;;;6.46;nan;100308.69;5108305;28;20110;-82
2021/11/03 02:34:01;;;;;;;69.85;12.60;;;;;;;6.55;nan;100307.31;5126954;28;20027;-82
2021/11/03 02:36:27;;;;;;;104.93;15.27;;;;;;;6.53;nan;100304.91;5108044;28;20039;-82
2021/11/03 02:38:53;;;;;;;58.22;11.85;;;;;;;6.59;nan;100303.97;5111888;28;20053;-82
2021/11/03 02:41:28;;;;;;;53.38;10.73;;;;;;;6.59;nan;100305.81;5113687;28;20024;-82
2021/11/03 02:43:59;;;;;;;73.43;11.70;;;;;;;6.67;nan;100305.47;5108198;28;20025;-82
2021/11/03 02:46:26;;;;;;;82.68;13.32;;;;;;;6.68;nan;100307.09;5113841;28;20054;-82
2021/11/03 02:48:51;;;;;;;75.88;14.13;;;;;;;6.72;nan;100302.09;5115509;27;20023;-82
2021/11/03 02:51:35;;;;;;;54.60;10.90;;;;;;;6.75;nan;100301.63;5110883;27;20574;-82
2021/11/03 02:54:05;;;;;;;187.57;24.08;;;;;;;6.73;nan;100311.72;5112332;27;20022;-82
2021/11/03 02:56:33;;;;;;;55.95;11.15;;;;;;;6.72;nan;100302.91;5115397;27;20030;-83
2021/11/03 02:58:59;;;;;;;47.22;10.43;;;;;;;6.75;nan;100315.75;5134359;27;20064;-82
2021/11/03 03:01:37;;;;;;;127.80;16.90;;;;;;;6.58;nan;100314.84;5134618;27;20434;-82
2021/11/03 03:04:08;;;;;;;78.60;12.52;;;;;;;6.66;nan;100311.84;5117801;27;20031;-82
2021/11/03 03:06:34;;;;;;;61.85;12.15;;;;;;;6.71;nan;100317.28;5128853;27;20027;-82
2021/11/03 03:09:00;;;;;;;23.65;8.63;;;;;;;6.75;nan;100312.28;5115694;27;20027;-82
2021/11/03 03:11:28;;;;;;;134.10;15.85;;;;;;;6.63;nan;100309.63;5117121;27;20027;-82
2021/11/03 03:13:54;;;;;;;64.53;12.73;;;;;;;6.51;nan;100306.97;5123518;27;20024;-82
2021/11/03 03:16:21;;;;;;;81.28;12.80;;;;;;;6.48;nan;100310.13;5116255;27;20054;-82
2021/11/03 03:18:47;;;;;;;106.90;12.80;;;;;;;6.46;nan;100324.66;5113748;27;20035;-82
2021/11/03 03:21:14;;;;;;;50.83;10.68;;;;;;;6.54;nan;100325.16;5116218;27;20038;-82
2021/11/03 03:23:40;;;;;;;100.00;12.68;;;;;;;6.48;nan;100326.09;5113436;27;20022;-82
2021/11/03 03:26:07;;;;;;;118.85;12.98;;;;;;;6.55;nan;100331.28;5114185;27;20030;-82
2021/11/03 03:28:34;;;;;;;25.13;8.25;;;;;;;6.58;nan;100328.16;5113300;27;20039;-82
2021/11/03 03:30:59;;;;;;;74.97;11.32;;;;;;;6.57;nan;100316.69;5110436;28;20080;-82
2021/11/03 03:33:25;;;;;;;65.07;10.25;;;;;;;6.53;nan;100318.22;5124228;27;20019;-82
2021/11/03 03:35:51;;;;;;;239.90;19.95;;;;;;;6.50;nan;100328.50;5117759;28;20373;-82
2021/11/03 03:38:16;;;;;;;87.93;11.77;;;;;;;6.48;nan;100325.28;5121454;27;20019;-82
2021/11/03 03:40:42;;;;;;;172.20;15.75;;;;;;;6.45;nan;100328.38;5125419;27;20023;-82
2021/11/03 03:43:08;;;;;;;129.05;13.00;;;;;;;6.36;nan;100334.06;5123061;27;20076;-82
2021/11/03 03:45:34;;;;;;;30.00;9.25;;;;;;;6.36;nan;100341.22;5112177;27;20038;-82
2021/11/03 03:47:59;;;;;;;226.15;17.77;;;;;;;6.27;nan;100338.06;5121264;27;20432;-82
2021/11/03 03:50:25;;;;;;;185.80;17.38;;;;;;;5.83;nan;100334.03;5135955;27;20058;-82
2021/11/03 03:52:51;;;;;;;93.30;10.50;;;;;;;5.83;nan;100330.56;5119831;28;20059;-82
2021/11/03 03:55:16;;;;;;;109.55;13.40;;;;;;;5.89;nan;100337.63;5115144;27;20110;-82
2021/11/03 03:57:42;;;;;;;132.95;14.10;;;;;;;5.85;nan;100337.28;5113750;22;20059;-82
2021/11/03 04:00:13;;;;;;;66.45;10.10;;;;;;;5.91;nan;100339.03;5096096;28;20027;-81
2021/11/03 04:02:39;;;;;;;136.57;13.60;;;;;;;5.96;nan;100341.03;5101583;28;20552;-82
2021/11/03 04:05:06;;;;;;;128.18;12.20;;;;;;;6.01;nan;100338.50;5111835;27;20028;-82
2021/11/03 04:07:31;;;;;;;214.35;16.85;;;;;;;6.08;nan;100331.22;5099131;28;20031;-81
2021/11/03 04:09:57;;;;;;;52.03;8.73;;;;;;;6.09;nan;100335.50;5101394;28;20028;-81
2021/11/03 04:12:22;;;;;;;72.20;10.00;;;;;;;6.13;nan;100335.88;5089829;28;20027;-81
2021/11/03 04:14:48;;;;;;;86.07;12.40;;;;;;;6.15;nan;100331.13;5097846;28;20030;-81
2021/11/03 04:17:14;;;;;;;51.20;9.40;;;;;;;6.14;nan;100335.66;5094096;28;20475;-82
2021/11/03 04:19:39;;;;;;;114.18;12.10;;;;;;;6.13;nan;100335.88;5093270;28;20028;-81
2021/11/03 04:22:05;;;;;;;97.60;11.32;;;;;;;6.05;nan;100344.97;5073523;28;20384;-81
2021/11/03 04:24:31;;;;;;;100.45;10.23;;;;;;;6.02;nan;100342.78;5098138;28;20075;-81
2021/11/03 04:26:56;;;;;;;48.70;8.00;;;;;;;6.03;nan;100342.56;5093786;28;20039;-81
2021/11/03 04:29:22;;;;;;;178.40;14.05;;;;;;;5.91;nan;100347.03;5088593;28;20031;-81
2021/11/03 04:31:49;;;;;;;146.13;13.48;;;;;;;5.78;nan;100344.53;5098934;27;20008;-82
2021/11/03 04:34:15;;;;;;;129.40;12.07;;;;;;;5.43;nan;100345.22;5100698;28;20066;-81
2021/11/03 04:36:40;;;;;;;110.72;11.85;;;;;;;5.16;nan;100347.34;5098287;28;20092;-82
2021/11/03 04:39:08;;;;;;;120.13;11.80;;;;;;;5.13;nan;100350.47;5108773;28;20072;-83
2021/11/03 04:41:34;;;;;;;165.98;13.10;;;;;;;5.07;nan;100359.31;5111374;28;20442;-81
2021/11/03 04:44:00;;;;;;;85.53;10.88;;;;;;;5.19;nan;100356.72;5088188;28;20089;-82
2021/11/03 04:46:25;;;;;;;62.75;9.20;;;;;;;5.32;nan;100356.56;5095807;28;20031;-82
2021/11/03 04:48:51;;;;;;;37.42;7.68;;;;;;;5.42;nan;100358.72;5096889;28;20064;-83
2021/11/03 04:51:18;;;;;;;93.35;9.95;;;;;;;5.49;nan;100359.44;5097758;28;20024;-85
2021/11/03 04:53:43;;;;;;;85.60;10.38;;;;;;;5.58;nan;100368.72;5106846;28;20081;-83
2021/11/03 04:56:10;;;;;;;28.48;7.57;;;;;;;5.63;nan;100360.09;5083411;28;20029;-82
2021/11/03 04:58:35;;;;;;;119.05;12.05;;;;;;;5.63;nan;100371.53;5089184;28;20080;-83
2021/11/03 05:01:01;;;;;;;170.13;14.45;;;;;;;5.67;nan;100375.34;5097656;28;20031;-83
2021/11/03 05:03:27;;;;;;;103.82;10.23;;;;;;;5.53;nan;100371.22;5105794;27;20259;-83
2021/11/03 05:05:54;;;;;;;202.75;16.35;;;;;;;5.37;nan;100371.84;5090019;28;20274;-83
2021/11/03 05:08:20;;;;;;;159.20;15.98;;;;;;;5.41;nan;100375.69;5091233;28;20028;-83
2021/11/03 05:10:45;;;;;;;157.60;13.88;;;;;;;5.33;nan;100374.13;5094742;28;20081;-83
2021/11/03 05:13:11;;;;;;;161.02;13.57;;;;;;;5.31;nan;100383.38;5106544;27;20180;-83
2021/11/03 05:15:36;;;;;;;69.10;10.70;;;;;;;5.34;nan;100381.06;5096035;28;20031;-84
2021/11/03 05:18:02;;;;;;;49.00;7.85;;;;;;;5.43;nan;100387.72;5096514;28;20094;-83
2021/11/03 05:20:28;;;;;;;22.58;6.65;;;;;;;5.56;nan;100388.56;5083913;28;20553;-83
2021/11/03 05:22:54;;;;;;;52.17;8.82;;;;;;;5.64;nan;100391.75;5089143;28;20032;-83
2021/11/03 05:25:25;;;;;;;59.50;8.98;;;;;;;5.63;nan;100390.13;5087957;28;20020;-84
2021/11/03 05:27:52;;;;;;;81.82;10.05;;;;;;;5.56;nan;100394.69;5095132;28;20108;-83
2021/11/03 05:30:19;;;;;;;38.13;8.23;;;;;;;5.60;nan;100395.91;5094987;28;20035;-84
2021/11/03 05:32:45;;;;;;;135.40;11.40;;;;;;;5.59;nan;100393.47;5089452;28;20496;-83
2021/11/03 05:35:11;;;;;;;15.93;6.13;;;;;;;5.62;nan;100393.81;5091263;28;20255;-84
2021/11/03 05:37:37;;;;;;;28.10;6.95;;;;;;;5.68;nan;100392.91;5098195;28;20669;-84
2021/11/03 05:40:06;;;;;;;108.75;10.55;;;;;;;5.71;nan;100397.78;5086217;28;20560;-83
2021/11/03 05:42:32;;;;;;;33.30;7.47;;;;;;;5.74;nan;100401.81;5094939;28;20024;-83
2021/11/03 05:44:58;;;;;;;49.20;8.35;;;;;;;5.74;nan;100407.16;5086923;28;20020;-83
2021/11/03 05:47:26;;;;;;;31.42;6.35;;;;;;;5.76;nan;100405.91;5085949;28;20028;-84
2021/11/03 05:49:52;;;;;;;146.60;14.00;;;;;;;5.72;nan;100399.41;5091128;28;20027;-84
2021/11/03 05:52:19;;;;;;;77.78;9.82;;;;;;;5.66;nan;100410.13;5088473;28;20027;-84
2021/11/03 05:54:45;;;;;;;109.85;11.30;;;;;;;5.59;nan;100410.22;5095209;28;20177;-84
2021/11/03 05:57:25;;;;;;;121.78;12.60;;;;;;;5.44;nan;100407.13;5091696;28;20023;-84
2021/11/03 05:59:52;;;;;;;81.68;11.05;;;;;;;5.50;nan;100406.22;5079248;28;20028;-83
2021/11/03 06:02:18;;;;;;;43.83;7.93;;;;;;;5.54;nan;100409.25;5089229;28;20524;-84
2021/11/03 06:04:44;;;;;;;81.88;11.63;;;;;;;5.59;nan;100414.72;5109927;28;20028;-84
2021/11/03 06:07:11;;;;;;;19.33;6.85;;;;;;;5.58;nan;100413.91;5106545;28;20032;-83
2021/11/03 06:09:36;;;;;;;102.35;12.68;;;;;;;5.49;nan;100414.41;5100437;28;20132;-83
2021/11/03 06:12:02;;;;;;;53.35;9.70;;;;;;;5.51;nan;100415.81;5085766;28;20195;-83
2021/11/03 06:14:28;;;;;;;60.03;9.82;;;;;;;5.14;nan;100421.13;5083718;28;20183;-83
2021/11/03 06:16:53;;;;;;;56.00;9.20;;;;;;;4.89;nan;100416.91;5089630;28;20481;-83
2021/11/03 06:19:19;;;;;;;95.15;12.73;;;;;;;4.85;nan;100425.31;5099510;28;20031;-83
2021/11/03 06:21:44;;;;;;;102.85;12.48;;;;;;;4.64;nan;100416.91;5090108;28;20031;-82
2021/11/03 06:24:10;;;;;;;51.45;10.18;;;;;;;4.64;nan;100424.88;5096099;28;20016;-82
2021/11/03 06:26:35;;;;;;;21.42;7.28;;;;;;;4.87;nan;100424.28;5093620;28;20031;-82
2021/11/03 06:29:02;;;;;;;44.72;9.85;;;;;;;5.02;nan;100420.22;5093695;28;20016;-83
2021/11/03 06:31:27;;;;;;;20.10;6.72;;;;;;;5.16;nan;100416.41;5112060;27;20122;-83
2021/11/03 06:33:53;;;;;;;41.08;8.68;;;;;;;5.19;nan;100425.78;5101094;28;20087;-83
2021/11/03 06:36:19;;;;;;;25.80;6.90;;;;;;;5.27;nan;100427.34;5101485;28;20510;-83
2021/11/03 06:38:45;;;;;;;115.38;13.10;;;;;;;5.22;nan;100430.66;5119425;27;20563;-83
2021/11/03 06:41:11;;;;;;;71.50;9.30;;;;;;;5.20;nan;100424.75;5097695;28;20090;-82
2021/11/03 06:43:36;;;;;;;133.77;12.73;;;;;;;5.01;nan;100423.91;5086465;28;20126;-83
2021/11/03 06:46:03;;;;;;;47.13;7.55;;;;;;;5.00;nan;100426.78;5085908;28;20099;-82
2021/11/03 06:48:28;;;;;;;109.18;11.95;;;;;;;4.68;nan;100432.19;5106246;27;20424;-83
2021/11/03 06:50:53;;;;;;;130.35;13.93;;;;;;;4.71;nan;100436.25;5094403;28;20027;-83
2021/11/03 06:53:22;;;;;;;128.23;13.02;;;;;;;4.59;nan;100438.78;5097850;28;20062;-84
2021/11/03 06:55:49;;;;;;;120.68;11.50;;;;;;;4.64;nan;100443.44;5097269;28;20092;-84
2021/11/03 06:58:15;;;;;;;171.13;14.05;;;;;;;4.71;nan;100445.03;5081268;28;20086;-84
2021/11/03 07:00:44;;;;;;;120.85;12.38;;;;;;;4.81;nan;100445.34;5072217;28;20115;-84
2021/11/03 07:03:10;;;;;;;44.25;7.85;;;;;;;4.91;nan;100441.38;5050311;28;20024;-83
2021/11/03 07:05:45;;;;;;;115.65;11.63;;;;;;;4.85;nan;100443.09;5087364;28;20477;-83
2021/11/03 07:08:12;;;;;;;28.85;6.57;;;;;;;5.02;nan;100445.97;5070099;28;20676;-84
2021/11/03 07:10:42;;;;;;;144.18;14.50;;;;;;;4.99;nan;100452.53;5075280;28;20030;-84
2021/11/03 07:13:08;;;;;;;92.75;10.18;;;;;;;4.93;nan;100448.09;5080405;28;20055;-84
2021/11/03 07:15:34;;;;;;;101.70;11.43;;;;;;;4.87;nan;100454.28;5097743;28;20028;-81
2021/11/03 07:18:00;;;;;;;80.38;9.40;;;;;;;4.77;nan;100448.66;5086458;28;20478;-82
2021/11/03 07:20:26;;;;;;;91.13;11.23;;;;;;;4.77;nan;100451.31;5081097;28;20031;-82
2021/11/03 07:22:52;;;;;;;172.38;17.30;;;;;;;4.85;nan;100456.34;5069873;28;20032;-81
2021/11/03 07:25:21;;;;;;;49.30;9.77;;;;;;;4.99;nan;100463.16;5096879;28;20020;-82
2021/11/03 07:27:51;;;;;;;141.88;14.57;;;;;;;5.15;nan;100467.09;5068533;28;20017;-83
2021/11/03 07:30:17;;;;;;;172.55;17.02;;;;;;;5.10;nan;100470.41;5080781;28;20500;-83
2021/11/03 07:32:43;;;;;;;125.03;16.25;;;;;;;5.04;nan;100473.94;5072170;28;20032;-82
2021/11/03 07:35:09;;;;;;;188.90;18.15;;;;;;;5.05;nan;100472.91;5085509;28;20027;-83
2021/11/03 07:37:36;;;;;;;47.35;11.20;;;;;;;5.00;nan;100475.38;5074476;28;20027;-83
2021/11/03 07:40:04;;;;;;;165.40;19.02;;;;;;;5.06;nan;100479.03;5075121;28;20068;-83
2021/11/03 07:42:30;;;;;;;107.40;17.48;;;;;;;5.23;nan;100490.72;5081772;28;20043;-83
2021/11/03 07:44:55;;;;;;;57.70;12.10;;;;;;;5.34;nan;100491.84;5072886;28;20063;-82
2021/11/03 07:47:21;;;;;;;113.78;14.80;;;;;;;5.15;nan;100493.66;5082752;28;20044;-81
2021/11/03 07:49:46;;;;;;;151.70;17.85;;;;;;;5.05;nan;100499.47;5082638;28;20033;-83
2021/11/03 07:52:12;;;;;;;232.77;22.77;;;;;;;4.95;nan;100503.63;5065167;28;20028;-82
2021/11/03 07:54:37;;;;;;;46.45;11.60;;;;;;;4.96;nan;100506.06;5074143;28;20028;-82
2021/11/03 07:57:03;;;;;;;62.75;11.95;;;;;;;5.10;nan;100510.25;5088721;28;20035;-83
2021/11/03 07:59:28;;;;;;;164.93;21.38;;;;;;;5.28;nan;100512.13;5100875;27;20601;-82
2021/11/03 08:01:54;;;;;;;76.88;14.15;;;;;;;5.42;nan;100508.31;5111073;27;20035;-83
2021/11/03 08:04:21;;;;;;;32.40;11.13;;;;;;;5.61;nan;100509.16;5115207;27;20023;-82
2021/11/03 08:06:47;;;;;;;55.50;13.73;;;;;;;5.79;nan;100511.00;5109589;28;20522;-83
2021/11/03 08:09:14;;;;;;;53.47;12.07;;;;;;;5.91;nan;100514.53;5115890;27;20023;-82
2021/11/03 08:11:53;;;;;;;26.25;10.25;;;;;;;5.94;nan;100513.31;5102075;28;20024;-82
2021/11/03 08:14:23;;;;;;;29.33;11.10;;;;;;;6.09;nan;100516.38;5122338;27;20052;-83
2021/11/03 08:17:12;;;;;;;18.98;10.07;;;;;;;6.16;nan;100517.13;5100282;27;20047;-83
2021/11/03 08:19:44;;;;;;;100.82;13.95;;;;;;;6.23;nan;100515.16;5103004;27;20019;-83
2021/11/03 08:22:10;;;;;;;115.97;16.73;;;;;;;6.24;nan;100522.09;5121339;27;20088;-81
2021/11/03 08:24:37;;;;;;;146.00;17.75;;;;;;;6.22;nan;100516.19;5117970;27;20030;-83
2021/11/03 08:27:03;;;;;;;86.10;12.52;;;;;;;6.27;nan;100508.34;5107315;28;20438;-83
2021/11/03 08:29:29;;;;;;;31.55;10.73;;;;;;;6.36;nan;100514.19;5122694;27;20051;-82
2021/11/03 08:31:57;;;;;;;64.13;11.60;;;;;;;6.51;nan;100519.09;5104293;28;20024;-82
2021/11/03 08:34:26;;;;;;;82.85;13.45;;;;;;;6.52;nan;100520.72;5123246;27;20023;-83
2021/11/03 08:36:53;;;;;;;90.57;14.40;;;;;;;6.59;nan;100510.78;5095159;27;20102;-83
2021/11/03 08:39:19;;;;;;;16.00;8.75;;;;;;;6.68;nan;100512.09;5110304;28;20026;-82
2021/11/03 08:41:45;;;;;;;42.15;10.68;;;;;;;6.78;nan;100511.53;5095605;27;20031;-82
2021/11/03 08:44:10;;;;;;;87.13;13.25;;;;;;;6.80;nan;100526.22;5112662;28;20026;-82
2021/11/03 08:46:36;;;;;;;44.63;10.85;;;;;;;6.81;nan;100525.19;5101693;28;20020;-82
2021/11/03 08:49:03;;;;;;;24.42;9.73;;;;;;;6.94;nan;100529.50;5100213;27;20034;-82
2021/11/03 08:51:30;;;;;;;69.65;14.05;;;;;;;6.58;nan;100523.28;5120396;27;20047;-83
2021/11/03 08:53:57;;;;;;;158.85;21.20;;;;;;;6.35;nan;100524.00;5113678;27;20027;-83
2021/11/03 08:56:24;;;;;;;77.93;16.23;;;;;;;6.33;nan;100528.75;5102857;27;20026;-82
2021/11/03 08:58:49;;;;;;;91.15;14.32;;;;;;;6.46;nan;100527.75;5109293;27;20024;-82
2021/11/03 09:01:20;;;;;;;66.75;13.52;;;;;;;6.63;nan;100535.91;5102119;28;20027;-83
2021/11/03 09:03:46;;;;;;;53.25;13.00;;;;;;;6.65;nan;100541.84;5107752;27;20027;-83
2021/11/03 09:06:12;;;;;;;56.05;12.25;;;;;;;6.49;nan;100545.13;5117744;27;20031;-83
2021/11/03 09:08:39;;;;;;;53.38;13.65;;;;;;;6.44;nan;100547.63;5104000;28;20028;-83
2021/11/03 09:11:05;;;;;;;52.92;13.93;;;;;;;6.24;nan;100545.25;5111822;28;20027;-83
2021/11/03 09:13:32;;;;;;;71.07;13.13;;;;;;;6.42;nan;100549.72;5112550;27;20027;-83
2021/11/03 09:15:58;;;;;;;132.95;18.42;;;;;;;6.26;nan;100549.28;5102343;28;20020;-83
2021/11/03 09:18:24;;;;;;;88.93;15.55;;;;;;;6.17;nan;100548.00;5098508;28;20035;-82
2021/11/03 09:20:52;;;;;;;106.20;15.73;;;;;;;6.21;nan;100551.00;5105834;28;20038;-84
2021/11/03 09:23:19;;;;;;;63.92;13.20;;;;;;;6.41;nan;100551.56;5109733;27;20035;-82
2021/11/03 09:25:46;;;;;;;105.57;16.50;;;;;;;6.36;nan;100554.91;5116246;27;20049;-83
2021/11/03 09:28:12;;;;;;;56.70;12.65;;;;;;;6.42;nan;100552.38;5113706;27;20516;-84
2021/11/03 09:30:38;;;;;;;69.68;13.35;;;;;;;6.29;nan;100553.38;5114931;27;20070;-83
2021/11/03 09:33:07;;;;;;;93.57;16.20;;;;;;;6.20;nan;100550.19;5099292;28;20123;-83
2021/11/03 09:35:36;;;;;;;67.18;15.30;;;;;;;6.27;nan;100552.78;5086935;28;20063;-83
2021/11/03 09:38:03;;;;;;;27.25;11.88;;;;;;;6.31;nan;100546.78;5118989;27;20020;-82
2021/11/03 09:40:35;;;;;;;55.88;15.02;;;;;;;6.23;nan;100552.41;5102092;28;20031;-83
2021/11/03 09:43:22;;;;;;;44.05;14.40;;;;;;;6.20;nan;100544.06;5110475;27;20400;-83
2021/11/03 09:45:48;;;;;;;30.10;13.25;;;;;;;6.58;nan;100547.22;5098697;28;20382;-84
2021/11/03 09:48:20;;;;;;;32.20;13.38;;;;;;;6.77;nan;100549.84;5094737;28;20227;-83
2021/11/03 09:50:50;;;;;;;58.17;15.23;;;;;;;6.66;nan;100544.28;5099685;28;20020;-83
2021/11/03 09:53:29;;;;;;;41.13;14.77;;;;;;;6.45;nan;100547.41;5099486;28;20019;-82
2021/11/03 09:55:55;;;;;;;64.40;16.77;;;;;;;6.62;nan;100543.06;5101612;28;20024;-82
2021/11/03 09:58:41;;;;;;;60.70;17.73;;;;;;;6.64;nan;100542.84;5103497;28;20036;-82
2021/11/03 10:01:19;;;;;;;54.78;17.02;;;;;;;6.70;nan;100539.28;5112375;27;20536;-83
2021/11/03 10:03:54;;;;;;;58.85;17.25;;;;;;;6.72;nan;100547.88;5100906;28;20039;-83
2021/11/03 10:06:40;;;;;;;55.78;16.42;;;;;;;6.71;nan;100542.78;5117484;28;20031;-83
2021/11/03 10:09:07;;;;;;;68.15;16.60;;;;;;;6.66;nan;100546.13;5110617;28;20059;-83
2021/11/03 10:11:39;;;;;;;37.80;16.33;;;;;;;6.75;nan;100543.94;5102816;28;20745;-83
2021/11/03 10:14:06;;;;;;;37.78;16.95;;;;;;;6.98;nan;100552.78;5095712;28;20532;-83
2021/11/03 10:16:36;;;;;;;31.48;15.73;;;;;;;7.24;nan;100545.41;5112307;28;20080;-83
2021/11/03 10:19:13;;;;;;;41.80;16.90;;;;;;;7.41;nan;100554.34;5112790;28;20106;-83
2021/11/03 10:21:44;;;;;;;33.55;16.65;;;;;;;7.60;nan;100548.88;5116202;28;20038;-83
2021/11/03 10:24:12;;;;;;;32.83;17.00;;;;;;;7.75;nan;100551.91;5096514;28;20090;-82
2021/11/03 10:26:56;;;;;;;35.63;16.35;;;;;;;7.65;nan;100549.00;5112770;28;20032;-83
2021/11/03 10:29:32;;;;;;;34.47;17.25;;;;;;;7.47;nan;100550.75;5109284;28;20115;-83
2021/11/03 10:32:06;;;;;;;38.60;18.80;;;;;;;7.71;nan;100548.84;5117857;28;20392;-82
2021/11/03 10:34:35;;;;;;;45.70;18.13;;;;;;;7.90;nan;100544.22;5114462;28;20024;-82
2021/11/03 10:37:09;;;;;;;38.75;17.13;;;;;;;7.91;nan;100547.69;5114084;28;20028;-83
2021/11/03 10:39:58;;;;;;;33.05;17.40;;;;;;;7.94;nan;100536.56;5110675;28;20032;-83
2021/11/03 10:42:43;;;;;;;36.15;18.17;;;;;;;8.06;nan;100529.31;5104979;28;20441;-83
2021/11/03 10:45:10;;;;;;;35.88;17.60;;;;;;;7.84;nan;100529.94;5120720;28;20077;-83
2021/11/03 10:47:36;;;;;;;34.42;17.58;;;;;;;7.95;nan;100533.66;5099747;28;20085;-83
2021/11/03 10:50:15;;;;;;;29.70;16.30;;;;;;;8.12;nan;100531.84;5101458;28;20384;-83
2021/11/03 10:52:52;;;;;;;35.08;16.98;;;;;;;8.24;nan;100539.81;5102014;28;20047;-83
2021/11/03 10:55:25;;;;;;;31.70;17.35;;;;;;;8.37;nan;100536.09;5094847;28;20030;-83
2021/11/03 10:58:06;;;;;;;31.52;16.95;;;;;;;8.49;nan;100536.84;5094999;28;20027;-83
2021/11/03 11:00:38;;;;;;;35.58;17.35;;;;;;;8.64;nan;100531.78;5098244;28;20515;-83
2021/11/03 11:03:13;;;;;;;33.60;17.15;;;;;;;8.71;nan;100536.97;5109608;28;20032;-83
2021/11/03 11:05:44;;;;;;;32.67;17.42;;;;;;;8.73;nan;100533.00;5109332;28;20070;-82
2021/11/03 11:08:19;;;;;;;32.17;17.50;;;;;;;8.63;nan;100532.03;5111999;28;20035;-83
2021/11/03 11:10:54;;;;;;;29.05;16.90;;;;;;;8.66;nan;100536.91;5114332;27;20034;-82
2021/11/03 11:13:28;;;;;;;32.67;17.48;;;;;;;8.60;nan;100527.97;5103330;27;20024;-82
2021/11/03 11:16:05;;;;;;;36.63;18.85;;;;;;;8.59;nan;100530.88;5108553;28;20023;-83
2021/11/03 11:18:42;;;;;;;49.80;27.08;;;;;;;8.55;nan;100535.88;5114739;27;20023;-83
2021/11/03 11:21:56;;;;;;;60.40;33.60;;;;;;;8.53;nan;100538.00;5097901;28;20088;-83
2021/11/03 11:24:30;;;;;;;44.85;22.95;;;;;;;8.42;nan;100530.84;5057786;28;20036;-82
2021/11/03 11:27:15;;;;;;;43.63;25.03;;;;;;;8.50;nan;100532.31;5107106;28;20168;-82
2021/11/03 11:30:01;;;;;;;45.45;23.45;;;;;;;8.66;nan;100534.22;5119962;27;20065;-82
2021/11/03 11:32:50;;;;;;;33.53;18.10;;;;;;;8.67;nan;100539.31;5110797;28;20046;-83
2021/11/03 11:35:45;;;;;;;32.33;17.75;;;;;;;8.73;nan;100537.53;5121913;27;20024;-83
2021/11/03 11:38:28;;;;;;;33.10;17.75;;;;;;;8.84;nan;100538.53;5099817;28;20031;-83